Time;durP1;ratioP1;P1;durP2;ratioP2;P2;SDS_P1;SDS_P2;PMS_P1;PMS_P2;Temp;Humidity;BMP_temperature;BMP_pressure;BME280_temperature;BME280_humidity;BME280_pressure;Samples;Min_cycle;Max_cycle;Signal;HPM_P1;HPM_P2
2022/09/10 00:02:04;;;;;;;20.90;14.57;;;;;;;;;;5037113;28;20037;-71
2022/09/10 00:04:30;;;;;;;15.35;12.63;;;;;;;;;;5051596;28;20147;-72
2022/09/10 00:06:56;;;;;;;15.85;13.80;;;;;;;;;;5051295;28;20432;-72
2022/09/10 00:09:23;;;;;;;17.88;13.48;;;;;;;;;;5057983;28;20033;-72
2022/09/10 00:11:49;;;;;;;18.40;15.32;;;;;;;;;;5049664;28;20171;-72
2022/09/10 00:14:20;;;;;;;21.42;15.38;;;;;;;;;;5052199;28;20095;-71
2022/09/10 00:16:46;;;;;;;19.80;15.00;;;;;;;;;;5051167;28;20644;-71
2022/09/10 00:19:13;;;;;;;21.77;15.95;;;;;;;;;;5053218;28;20075;-71
2022/09/10 00:21:39;;;;;;;24.92;16.40;;;;;;;;;;5053930;28;20025;-71
2022/09/10 00:24:06;;;;;;;19.90;15.73;;;;;;;;;;5051949;28;20029;-70
2022/09/10 00:26:34;;;;;;;17.73;15.07;;;;;;;;;;5054757;28;20033;-71
2022/09/10 00:29:00;;;;;;;23.67;16.67;;;;;;;;;;5033851;28;20104;-70
2022/09/10 00:31:28;;;;;;;24.50;17.27;;;;;;;;;;5049186;28;20465;-70
2022/09/10 00:33:54;;;;;;;26.40;19.10;;;;;;;;;;5053442;28;20036;-70
2022/09/10 00:36:21;;;;;;;22.98;18.50;;;;;;;;;;5064075;28;20036;-71
2022/09/10 00:38:48;;;;;;;23.15;17.60;;;;;;;;;;5057869;28;20041;-70
2022/09/10 00:41:15;;;;;;;19.05;16.63;;;;;;;;;;5057267;28;20033;-70
2022/09/10 00:43:56;;;;;;;28.08;17.50;;;;;;;;;;5060300;28;20408;-70
2022/09/10 00:46:25;;;;;;;23.65;17.77;;;15.40;99.90;;;;;;5052032;28;20037;-71
2022/09/10 00:48:51;;;;;;;24.25;18.23;;;;;;;;;;5070825;28;20028;-70
2022/09/10 00:51:18;;;;;;;20.85;18.05;;;;;;;;;;5052293;28;20052;-70
2022/09/10 00:53:45;;;;;;;23.00;17.60;;;;;;;;;;5031278;28;20033;-70
2022/09/10 00:56:11;;;;;;;25.08;18.83;;;;;;;;;;5045968;28;20048;-70
2022/09/10 00:58:37;;;;;;;25.05;18.02;;;;;;;;;;5049115;28;20496;-70
2022/09/10 01:01:03;;;;;;;25.85;19.98;;;;;;;;;;5044538;28;20094;-70
2022/09/10 01:03:31;;;;;;;25.42;19.83;;;;;;;;;;5032655;28;20036;-70
2022/09/10 01:05:57;;;;;;;25.48;20.00;;;;;;;;;;5023842;28;20045;-70
2022/09/10 01:08:26;;;;;;;25.90;20.13;;;;;;;;;;5039217;28;20515;-71
2022/09/10 01:11:05;;;;;;;27.48;18.90;;;;;;;;;;5048399;28;20039;-70
2022/09/10 01:13:49;;;;;;;28.17;19.50;;;;;;;;;;5046834;28;20533;-70
2022/09/10 01:16:15;;;;;;;30.33;19.70;;;;;;;;;;5056375;28;20037;-70
2022/09/10 01:18:44;;;;;;;24.00;20.38;;;;;;;;;;5070360;28;20101;-70
2022/09/10 01:21:10;;;;;;;30.02;19.63;;;;;;;;;;5053023;28;20488;-70
2022/09/10 01:24:13;;;;;;;26.92;20.90;;;15.60;99.90;;;;;;5051193;28;20021;-70
2022/09/10 01:27:16;;;;;;;25.00;20.23;;;15.40;99.90;;;;;;5049135;28;20037;-70
2022/09/10 01:29:49;;;;;;;;;;;15.60;99.90;;;;;;5049646;28;20029;-70
2022/09/10 01:32:23;;;;;;;28.95;22.20;;;;;;;;;;5044415;28;19913;-71
2022/09/10 01:34:53;;;;;;;26.80;21.98;;;;;;;;;;5043712;28;20103;-70
2022/09/10 01:37:24;;;;;;;33.30;21.25;;;;;;;;;;5051364;28;20374;-70
2022/09/10 01:39:52;;;;;;;28.45;21.98;;;;;;;;;;5051266;28;20029;-70
2022/09/10 01:42:18;;;;;;;33.95;22.50;;;;;;;;;;5033229;28;20385;-70
2022/09/10 01:44:46;;;;;;;33.55;22.63;;;;;;;;;;5049638;28;20021;-71
2022/09/10 01:47:37;;;;;;;31.58;23.10;;;;;;;;;;5033008;28;20091;-70
2022/09/10 01:50:03;;;;;;;34.50;23.02;;;;;;;;;;5048786;28;20033;-70
2022/09/10 01:52:29;;;;;;;31.52;22.92;;;;;;;;;;5060824;28;20037;-70
2022/09/10 01:55:21;;;;;;;30.40;23.35;;;15.60;99.90;;;;;;5051187;28;20029;-70
2022/09/10 01:57:54;;;;;;;30.83;23.27;;;;;;;;;;5051788;28;20083;-69
2022/09/10 02:00:21;;;;;;;37.75;23.70;;;;;;;;;;5049085;28;20025;-70
2022/09/10 02:02:58;;;;;;;32.40;23.73;;;;;;;;;;5051222;28;20029;-70
2022/09/10 02:05:27;;;;;;;30.77;22.67;;;;;;;;;;5049000;28;20085;-70
2022/09/10 02:07:55;;;;;;;32.67;23.02;;;;;;;;;;5053644;28;20475;-70
2022/09/10 02:10:22;;;;;;;32.40;23.70;;;;;;;;;;5049556;28;20047;-70
2022/09/10 02:12:48;;;;;;;36.50;24.00;;;;;;;;;;5051644;28;20071;-70
2022/09/10 02:15:15;;;;;;;41.17;24.13;;;;;;;;;;5049922;28;20469;-71
2022/09/10 02:17:42;;;;;;;31.05;23.27;;;;;;;;;;5049140;28;20045;-70
2022/09/10 02:20:10;;;;;;;27.13;21.45;;;;;;;;;;5049631;28;20099;-70
2022/09/10 02:22:36;;;;;;;28.83;23.85;;;;;;;;;;5049891;28;20029;-70
2022/09/10 02:25:03;;;;;;;29.40;22.23;;;;;;;;;;5049273;28;20041;-70
2022/09/10 02:27:29;;;;;;;32.78;23.30;;;;;;;;;;5048663;28;20529;-70
2022/09/10 02:29:58;;;;;;;35.38;25.40;;;;;;;;;;5033096;28;20033;-71
2022/09/10 02:32:24;;;;;;;35.65;24.80;;;;;;;;;;5060615;28;20039;-71
2022/09/10 02:34:50;;;;;;;36.97;24.55;;;;;;;;;;5031491;28;20062;-71
2022/09/10 02:37:17;;;;;;;32.50;24.02;;;;;;;;;;5052427;28;20044;-71
2022/09/10 02:39:44;;;;;;;33.78;22.38;;;;;;;;;;5052594;28;20033;-70
2022/09/10 02:42:11;;;;;;;37.10;24.58;;;;;;;;;;5049168;28;20046;-71
2022/09/10 02:44:37;;;;;;;28.95;23.63;;;;;;;;;;5033715;28;20029;-70
2022/09/10 02:47:04;;;;;;;33.88;25.27;;;;;;;;;;5050501;28;20039;-71
2022/09/10 02:49:32;;;;;;;32.80;25.38;;;;;;;;;;5059549;28;20048;-71
2022/09/10 02:51:58;;;;;;;33.45;24.05;;;;;;;;;;5049722;28;20025;-71
2022/09/10 02:54:25;;;;;;;32.35;24.88;;;;;;;;;;5049534;28;20083;-71
2022/09/10 02:56:51;;;;;;;33.72;25.88;;;;;;;;;;5050129;28;20033;-71
2022/09/10 02:59:17;;;;;;;31.65;23.30;;;;;;;;;;5049925;28;20037;-71
2022/09/10 03:01:43;;;;;;;36.45;26.55;;;;;;;;;;5048227;28;20061;-71
2022/09/10 03:04:09;;;;;;;33.88;26.17;;;;;;;;;;5049662;28;20680;-71
2022/09/10 03:06:35;;;;;;;36.47;26.88;;;;;;;;;;5041015;28;20043;-71
2022/09/10 03:09:01;;;;;;;33.85;25.85;;;;;;;;;;5049448;28;20416;-71
2022/09/10 03:11:28;;;;;;;37.70;27.92;;;;;;;;;;5044807;28;20037;-71
2022/09/10 03:13:55;;;;;;;32.63;25.30;;;;;;;;;;5048564;28;20033;-72
2022/09/10 03:16:22;;;;;;;35.95;25.75;;;;;;;;;;5045744;28;20029;-71
2022/09/10 03:18:50;;;;;;;38.05;27.10;;;;;;;;;;5032643;28;20385;-70
2022/09/10 03:21:18;;;;;;;86.90;58.33;;;;;;;;;;5048195;28;20028;-71
2022/09/10 03:23:45;;;;;;;43.17;27.88;;;;;;;;;;5050133;28;20021;-70
2022/09/10 03:26:13;;;;;;;36.70;26.60;;;;;;;;;;5047348;28;20084;-71
2022/09/10 03:28:39;;;;;;;36.97;26.25;;;;;;;;;;5050376;28;20108;-70
2022/09/10 03:31:06;;;;;;;36.08;26.30;;;;;;;;;;5047629;28;20477;-71
2022/09/10 03:33:32;;;;;;;36.08;26.40;;;;;;;;;;5061722;28;20107;-71
2022/09/10 03:35:58;;;;;;;30.55;25.13;;;;;;;;;;5053283;28;20036;-72
2022/09/10 03:38:26;;;;;;;38.03;26.77;;;;;;;;;;5039898;28;20065;-72
2022/09/10 03:40:52;;;;;;;34.28;25.10;;;;;;;;;;5031756;28;20026;-71
2022/09/10 03:43:19;;;;;;;32.03;23.58;;;;;;;;;;5031265;28;20109;-71
2022/09/10 03:45:47;;;;;;;31.85;25.77;;;;;;;;;;5030927;28;20037;-71
2022/09/10 03:48:14;;;;;;;31.55;24.17;;;;;;;;;;5016297;28;20040;-70
2022/09/10 03:50:43;;;;;;;43.10;29.52;;;;;;;;;;5034514;28;20040;-71
2022/09/10 03:53:09;;;;;;;34.10;25.73;;;;;;;;;;5037253;28;20083;-71
2022/09/10 03:55:35;;;;;;;30.35;25.58;;;;;;;;;;5036733;28;20040;-70
2022/09/10 03:58:02;;;;;;;32.08;24.33;;;;;;;;;;5031394;28;20034;-71
2022/09/10 04:00:28;;;;;;;36.67;26.13;;;;;;;;;;5031788;28;20034;-72
2022/09/10 04:02:54;;;;;;;33.28;25.60;;;;;;;;;;5031703;28;20040;-72
2022/09/10 04:05:20;;;;;;;35.03;25.48;;;;;;;;;;5036603;28;20043;-72
2022/09/10 04:07:46;;;;;;;31.55;23.52;;;;;;;;;;5033604;28;20083;-72
2022/09/10 04:10:12;;;;;;;33.08;24.58;;;;;;;;;;5033764;28;20033;-72
2022/09/10 04:12:39;;;;;;;34.58;23.77;;;;;;;;;;5039250;28;20033;-72
2022/09/10 04:15:05;;;;;;;30.13;24.30;;;;;;;;;;5036407;28;20114;-72
2022/09/10 04:17:31;;;;;;;34.40;24.55;;;;;;;;;;5034110;28;20030;-72
2022/09/10 04:19:57;;;;;;;32.85;22.75;;;;;;;;;;5032909;28;20056;-72
2022/09/10 04:22:23;;;;;;;31.52;24.67;;;;;;;;;;5027077;28;20038;-72
2022/09/10 04:24:50;;;;;;;33.70;23.85;;;;;;;;;;5044676;28;20033;-72
2022/09/10 04:27:16;;;;;;;31.42;22.30;;;;;;;;;;5040208;28;20029;-72
2022/09/10 04:29:42;;;;;;;28.27;22.48;;;;;;;;;;5042024;28;20108;-73
2022/09/10 04:32:08;;;;;;;26.60;22.05;;;;;;;;;;5033360;28;20401;-73
2022/09/10 04:34:34;;;;;;;32.33;22.92;;;;;;;;;;5010283;28;20486;-72
2022/09/10 04:37:00;;;;;;;26.45;22.23;;;;;;;;;;5023527;28;20033;-72
2022/09/10 04:39:26;;;;;;;31.80;23.10;;;;;;;;;;5035399;28;20091;-71
2022/09/10 04:41:52;;;;;;;34.55;24.70;;;;;;;;;;5036186;28;20033;-71
2022/09/10 04:44:18;;;;;;;31.42;23.20;;;;;;;;;;5032285;28;20033;-71
2022/09/10 04:46:46;;;;;;;29.90;22.13;;;;;;;;;;5042839;28;20068;-71
2022/09/10 04:49:12;;;;;;;30.08;23.13;;;;;;;;;;5052368;28;20469;-71
2022/09/10 04:51:38;;;;;;;35.75;21.75;;;;;;;;;;5051445;28;20120;-72
2022/09/10 04:54:04;;;;;;;34.80;23.55;;;;;;;;;;5052172;28;20074;-72
2022/09/10 04:56:30;;;;;;;27.20;22.30;;;;;;;;;;5052047;28;20044;-71
2022/09/10 04:58:56;;;;;;;29.00;22.67;;;;;;;;;;5064609;28;20082;-71
2022/09/10 05:01:22;;;;;;;30.02;22.45;;;;;;;;;;5054639;28;20025;-72
2022/09/10 05:03:48;;;;;;;31.75;22.45;;;;;;;;;;5051535;28;20040;-72
2022/09/10 05:06:14;;;;;;;38.13;24.30;;;;;;;;;;5044306;28;20164;-72
2022/09/10 05:08:40;;;;;;;26.33;20.80;;;;;;;;;;5051856;28;20118;-71
2022/09/10 05:11:06;;;;;;;24.80;21.45;;;;;;;;;;5033987;28;20039;-72
2022/09/10 05:13:32;;;;;;;31.35;23.67;;;;;;;;;;5051237;28;20021;-71
2022/09/10 05:15:58;;;;;;;32.00;22.75;;;;;;;;;;5055435;28;20480;-72
2022/09/10 05:18:25;;;;;;;24.77;21.27;;;;;;;;;;5040732;28;20025;-72
2022/09/10 05:20:51;;;;;;;29.10;22.90;;;;;;;;;;5050191;28;20074;-71
2022/09/10 05:23:18;;;;;;;31.63;20.50;;;;;;;;;;5051278;28;20051;-71
2022/09/10 05:25:44;;;;;;;30.02;21.13;;;;;;;;;;5062579;28;20090;-71
2022/09/10 05:28:11;;;;;;;29.85;20.75;;;;;;;;;;5066356;28;20033;-72
2022/09/10 05:30:37;;;;;;;26.73;20.27;;;;;;;;;;5046537;28;20034;-72
2022/09/10 05:33:03;;;;;;;28.63;20.55;;;;;;;;;;5027751;28;20071;-72
2022/09/10 05:35:29;;;;;;;27.45;21.98;;;;;;;;;;5048622;28;20560;-72
2022/09/10 05:37:56;;;;;;;25.85;20.65;;;;;;;;;;5063910;28;20438;-71
2022/09/10 05:40:22;;;;;;;27.08;21.33;;;;;;;;;;5052988;28;20086;-71
2022/09/10 05:42:48;;;;;;;26.83;21.58;;;;;;;;;;5048694;28;20028;-71
2022/09/10 05:45:14;;;;;;;35.88;20.38;;;;;;;;;;5034918;28;20047;-70
2022/09/10 05:47:42;;;;;;;26.45;19.10;;;;;;;;;;5025950;28;20440;-70
2022/09/10 05:50:08;;;;;;;26.20;21.52;;;;;;;;;;5056686;28;20483;-70
2022/09/10 05:52:34;;;;;;;29.98;20.17;;;;;;;;;;5040203;28;20025;-71
2022/09/10 05:55:00;;;;;;;34.17;21.27;;;;;;;;;;5033080;28;20037;-71
2022/09/10 05:57:26;;;;;;;25.00;20.23;;;;;;;;;;5044426;28;20036;-76
2022/09/10 05:59:52;;;;;;;25.77;20.08;;;;;;;;;;5043290;28;20029;-76
2022/09/10 06:02:19;;;;;;;23.00;17.73;;;;;;;;;;5046745;28;20055;-80
2022/09/10 06:04:45;;;;;;;28.15;20.83;;;;;;;;;;5050096;28;20029;-71
2022/09/10 06:07:11;;;;;;;27.42;20.13;;;;;;;;;;5051214;28;20036;-71
2022/09/10 06:09:37;;;;;;;25.05;20.73;;;;;;;;;;5050434;28;20045;-71
2022/09/10 06:12:05;;;;;;;28.27;19.67;;;;;;;;;;5050857;28;20090;-70
2022/09/10 06:14:31;;;;;;;26.13;19.80;;;;;;;;;;5052084;28;20036;-70
2022/09/10 06:16:57;;;;;;;28.67;20.90;;;;;;;;;;5053374;28;20082;-70
2022/09/10 06:19:23;;;;;;;27.80;18.35;;;;;;;;;;5032707;28;20505;-71
2022/09/10 06:21:53;;;;;;;30.13;19.58;;;;;;;;;;5046751;28;20037;-70
2022/09/10 06:24:18;;;;;;;26.10;19.83;;;;;;;;;;5051128;28;20500;-70
2022/09/10 06:26:51;;;;;;;27.05;19.58;;;;;;;;;;5046426;28;20080;-70
2022/09/10 06:29:18;;;;;;;32.85;23.15;;;;;;;;;;5044041;28;20036;-71
2022/09/10 06:31:44;;;;;;;29.88;22.20;;;;;;;;;;5043515;28;20029;-70
2022/09/10 06:34:10;;;;;;;28.02;21.17;;;;;;;;;;5050349;28;20102;-71
2022/09/10 06:36:36;;;;;;;29.73;21.35;;;;;;;;;;5048855;28;21063;-71
2022/09/10 06:39:02;;;;;;;27.02;19.13;;;;;;;;;;5029561;28;20052;-71
2022/09/10 06:41:30;;;;;;;28.15;19.75;;;;;;;;;;5047856;28;20461;-70
2022/09/10 06:43:59;;;;;;;24.48;18.35;;;;;;;;;;5034551;28;20056;-70
2022/09/10 06:46:25;;;;;;;25.52;18.83;;;;;;;;;;5042374;28;20421;-70
2022/09/10 06:48:51;;;;;;;26.05;18.63;;;;;;;;;;5051353;28;20488;-70
2022/09/10 06:51:17;;;;;;;24.92;17.73;;;;;;;;;;5048832;28;20488;-70
2022/09/10 06:53:46;;;;;;;26.10;17.73;;;;;;;;;;5049561;28;20060;-70
2022/09/10 06:56:14;;;;;;;30.00;18.48;;;;;;;;;;5031450;28;20151;-70
2022/09/10 06:58:40;;;;;;;20.90;16.85;;;;;;;;;;5052933;28;20056;-70
2022/09/10 07:01:10;;;;;;;33.50;19.48;;;;;;;;;;5029202;28;20100;-72
2022/09/10 07:03:36;;;;;;;37.05;25.33;;;;;;;;;;5044729;28;20536;-71
2022/09/10 07:06:06;;;;;;;23.23;18.00;;;;;;;;;;5030959;28;20035;-72
2022/09/10 07:08:32;;;;;;;25.35;18.80;;;;;;;;;;5033963;28;20120;-71
2022/09/10 07:11:02;;;;;;;29.48;19.55;;;;;;;;;;5053338;28;20071;-72
2022/09/10 07:13:28;;;;;;;25.13;18.52;;;;;;;;;;5064367;28;20056;-71
2022/09/10 07:15:54;;;;;;;25.02;17.60;;;;;;;;;;5038875;28;20444;-71
2022/09/10 07:18:20;;;;;;;30.95;18.67;;;;;;;;;;5052487;28;20053;-71
2022/09/10 07:20:46;;;;;;;23.67;17.38;;;;;;;;;;5044020;28;20060;-70
2022/09/10 07:23:13;;;;;;;26.67;16.70;;;;;;;;;;5052148;28;20493;-70
2022/09/10 07:25:40;;;;;;;25.58;17.02;;;;;;;;;;5046519;28;20072;-70
2022/09/10 07:28:12;;;;;;;29.65;19.35;;;;;;;;;;5046870;28;20036;-70
2022/09/10 07:30:38;;;;;;;27.98;19.55;;;;;;;;;;5052689;28;20381;-70
2022/09/10 07:33:04;;;;;;;28.63;17.92;;;;;;;;;;5036912;28;20029;-70
2022/09/10 07:35:30;;;;;;;31.58;19.08;;;;;;;;;;5045997;28;20047;-70
2022/09/10 07:37:56;;;;;;;28.65;18.60;;;;;;;;;;5033833;28;20057;-70
2022/09/10 07:40:22;;;;;;;26.00;17.83;;;;;;;;;;5053293;28;20033;-70
2022/09/10 07:42:54;;;;;;;31.30;18.90;;;;;;;;;;5053738;28;20098;-71
2022/09/10 07:45:20;;;;;;;23.20;16.85;;;;;;;;;;5050666;28;20499;-70
2022/09/10 07:47:46;;;;;;;23.90;16.45;;;;;;;;;;5059025;28;20450;-70
2022/09/10 07:50:13;;;;;;;25.13;17.70;;;;;;;;;;5044139;28;20682;-70
2022/09/10 07:52:40;;;;;;;44.45;29.02;;;;;;;;;;5044636;28;20588;-71
2022/09/10 07:55:06;;;;;;;33.25;26.02;;;;;;;;;;5051968;28;20041;-71
2022/09/10 07:57:39;;;;;;;35.13;26.17;;;;;;;;;;5034446;28;20029;-70
2022/09/10 08:00:13;;;;;;;22.08;16.88;;;;;;;;;;5052711;28;20067;-70
2022/09/10 08:02:40;;;;;;;24.55;16.77;;;;;;;;;;5044223;28;20049;-70
2022/09/10 08:05:07;;;;;;;25.27;15.80;;;;;;;;;;5050012;28;20517;-71
2022/09/10 08:07:33;;;;;;;20.17;14.57;;;;;;;;;;5047658;28;20068;-71
2022/09/10 08:09:59;;;;;;;24.83;15.82;;;;;;;;;;5044073;28;20056;-71
2022/09/10 08:12:25;;;;;;;18.05;13.80;;;;;;;;;;5045534;28;20473;-70
2022/09/10 08:14:51;;;;;;;50.40;34.25;;;;;;;;;;5048828;28;20028;-71
2022/09/10 08:17:17;;;;;;;28.80;22.08;;;;;;;;;;5050885;28;20431;-71
2022/09/10 08:19:43;;;;;;;26.23;18.75;;;;;;;;;;5046601;28;20041;-70
2022/09/10 08:22:10;;;;;;;18.80;14.32;;;;;;;;;;5044081;28;20086;-71
2022/09/10 08:24:36;;;;;;;21.25;12.73;;;;;;;;;;5052323;28;20400;-70
2022/09/10 08:27:02;;;;;;;19.30;13.02;;;;;;;;;;5053072;28;20472;-71
2022/09/10 08:29:28;;;;;;;22.05;13.63;;;;;;;;;;5052352;28;20086;-70
2022/09/10 08:31:55;;;;;;;15.05;12.35;;;;;;;;;;5049955;28;20127;-70
2022/09/10 08:34:21;;;;;;;15.80;12.05;;;;;;;;;;5052623;28;20108;-71
2022/09/10 08:36:48;;;;;;;17.55;11.63;;;;;;;;;;5055651;28;20028;-71
2022/09/10 08:39:14;;;;;;;11.73;9.80;;;;;;;;;;5059641;28;20053;-71
2022/09/10 08:41:46;;;;;;;13.55;9.50;;;;;;;;;;5052394;28;20051;-71
2022/09/10 08:44:34;;;;;;;14.02;9.23;;;19.00;99.90;;;;;;5048971;28;20652;-70
2022/09/10 08:47:09;;;;;;;14.52;9.48;;;;;;;;;;5050727;28;20029;-70
2022/09/10 08:49:45;;;;;;;12.13;7.50;;;;;;;;;;5052357;28;20037;-71
2022/09/10 08:52:28;;;;;;;11.90;7.82;;;;;;;;;;5034387;28;20262;-71
2022/09/10 08:54:57;;;;;;;13.60;8.73;;;;;;;;;;5050477;28;20060;-71
2022/09/10 08:57:29;;;;;;;12.38;8.70;;;19.30;99.90;;;;;;5049004;28;20519;-71
2022/09/10 08:59:55;;;;;;;;;;;;;;;;;;5053112;28;20033;-71
2022/09/10 09:02:36;;;;;;;10.43;8.10;;;;;;;;;;5052545;28;20422;-71
2022/09/10 09:05:11;;;;;;;18.85;9.50;;;;;;;;;;5045289;28;20059;-71
2022/09/10 09:07:39;;;;;;;12.95;9.95;;;;;;;;;;5072096;28;20108;-71
2022/09/10 09:10:24;;;;;;;14.70;9.15;;;19.00;99.90;;;;;;5051309;28;20535;-71
2022/09/10 09:13:34;;;;;;;10.27;7.90;;;19.00;99.90;;;;;;5033159;28;20488;-70
2022/09/10 09:16:19;;;;;;;13.23;9.50;;;;;;;;;;5049174;28;20053;-71
2022/09/10 09:18:48;;;;;;;12.98;9.40;;;;;;;;;;5051595;28;20127;-71
2022/09/10 09:21:23;;;;;;;11.85;9.57;;;20.70;99.90;;;;;;5051993;28;20040;-71
2022/09/10 09:23:55;;;;;;;12.75;9.48;;;;;;;;;;5045245;28;20029;-71
2022/09/10 09:26:33;;;;;;;11.13;8.77;;;20.90;99.90;;;;;;5032367;28;20029;-71
2022/09/10 09:29:07;;;;;;;11.43;7.80;;;;;;;;;;5063656;28;20029;-71
2022/09/10 09:31:36;;;;;;;12.50;8.48;;;;;;;;;;5042386;28;20041;-71
2022/09/10 09:34:11;;;;;;;9.65;7.45;;;;;;;;;;5042471;28;20025;-71
2022/09/10 09:36:41;;;;;;;10.98;6.97;;;;;;;;;;5053834;28;20455;-71
2022/09/10 09:39:41;;;;;;;9.57;6.80;;;23.50;99.90;;;;;;5053130;28;20158;-71
2022/09/10 09:42:08;;;;;;;13.02;6.95;;;;;;;;;;5050234;28;20029;-71
2022/09/10 09:45:01;;;;;;;11.57;6.60;;;23.00;99.90;;;;;;5050975;28;20033;-71
2022/09/10 09:47:27;;;;;;;7.30;6.00;;;;;;;;;;5057921;28;20086;-71
2022/09/10 09:49:53;;;;;;;9.93;5.43;;;;;;;;;;5067821;28;20626;-70
2022/09/10 09:52:21;;;;;;;7.35;5.45;;;;;;;;;;5065880;28;20136;-71
2022/09/10 09:54:49;;;;;;;9.95;6.55;;;;;;;;;;5050610;28;20043;-70
2022/09/10 09:57:18;;;;;;;8.50;5.03;;;;;;;;;;5051502;28;20021;-70
2022/09/10 09:59:44;;;;;;;8.10;4.35;;;;;;;;;;5049252;28;20619;-71
2022/09/10 10:02:10;;;;;;;8.13;5.95;;;;;;;;;;5043529;28;20441;-71
2022/09/10 10:04:36;;;;;;;6.68;5.72;;;;;;;;;;5048359;28;20112;-70
2022/09/10 10:07:03;;;;;;;12.02;7.28;;;22.20;99.90;;;;;;5048441;28;20033;-70
2022/09/10 10:09:31;;;;;;;7.68;5.40;;;22.20;99.90;;;;;;5049668;28;20086;-72
2022/09/10 10:12:03;;;;;;;8.27;5.85;;;21.80;99.90;;;;;;5050109;28;20025;-71
2022/09/10 10:14:28;;;;;;;;;;;21.70;99.90;;;;;;5051499;28;20374;-71
2022/09/10 10:16:54;;;;;;;9.52;6.60;;;;;;;;;;5035223;28;19959;-71
2022/09/10 10:19:28;;;;;;;12.38;7.32;;;;;;;;;;5048639;28;20067;-71
2022/09/10 10:21:54;;;;;;;11.45;7.75;;;;;;;;;;5054837;28;20056;-72
2022/09/10 10:24:30;;;;;;;11.63;8.10;;;;;;;;;;5042425;28;20061;-72
2022/09/10 10:26:57;;;;;;;11.15;7.70;;;;;;;;;;5045723;28;20072;-71
2022/09/10 10:29:23;;;;;;;8.65;6.72;;;;;;;;;;5041200;28;20033;-71
2022/09/10 10:31:50;;;;;;;10.82;6.57;;;;;;;;;;5047043;28;20035;-71
2022/09/10 10:34:28;;;;;;;9.98;6.80;;;;;;;;;;5048346;28;20036;-71
2022/09/10 10:37:21;;;;;;;10.95;6.85;;;22.10;99.90;;;;;;5050923;28;20408;-71
2022/09/10 10:39:50;;;;;;;8.73;6.32;;;;;;;;;;5031631;28;20115;-71
2022/09/10 10:42:20;;;;;;;9.20;5.78;;;;;;;;;;5048305;28;20029;-71
2022/09/10 10:44:46;;;;;;;11.45;5.63;;;;;;;;;;5063748;28;20040;-72
2022/09/10 10:47:18;;;;;;;10.35;6.15;;;;;;;;;;5054383;28;20037;-71
2022/09/10 10:49:44;;;;;;;;;;;;;;;;;;5055693;28;20041;-71
2022/09/10 10:52:37;;;;;;;13.93;6.53;;;22.40;99.90;;;;;;5065383;28;19911;-71
2022/09/10 10:55:23;;;;;;;13.65;6.57;;;22.10;99.90;;;;;;5053359;28;20104;-71
2022/09/10 10:58:10;;;;;;;9.90;7.45;;;;;;;;;;5057790;28;20037;-71
2022/09/10 11:00:40;;;;;;;6.85;5.85;;;;;;;;;;5045713;28;20443;-71
2022/09/10 11:03:09;;;;;;;21.17;15.45;;;;;;;;;;5046298;28;20078;-72
2022/09/10 11:05:36;;;;;;;14.32;8.35;;;;;;;;;;5053427;28;20040;-71
2022/09/10 11:08:13;;;;;;;10.75;5.68;;;;;;;;;;5054147;28;20029;-72
2022/09/10 11:10:39;;;;;;;10.57;5.90;;;;;;;;;;5031958;28;20456;-72
2022/09/10 11:13:10;;;;;;;9.57;6.65;;;;;;;;;;5068002;28;20031;-75
2022/09/10 11:15:51;;;;;;;10.63;6.35;;;22.00;99.90;;;;;;5054701;28;20029;-71
2022/09/10 11:18:16;;;;;;;13.00;6.65;;;22.00;99.90;;;;;;5053929;28;20025;-71
2022/09/10 11:21:01;;;;;;;11.98;6.65;;;22.00;99.90;;;;;;5054269;28;20045;-71
2022/09/10 11:23:38;;;;;;;11.48;6.60;;;;;;;;;;5055680;28;20032;-72
2022/09/10 11:26:14;;;;;;;10.60;5.93;;;;;;;;;;5055812;28;20084;-72
2022/09/10 11:28:49;;;;;;;10.68;6.07;;;;;;;;;;5054641;28;20041;-72
2022/09/10 11:31:36;;;;;;;11.77;6.32;;;;;;;;;;5033686;28;20106;-71
2022/09/10 11:34:14;;;;;;;11.30;6.05;;;22.30;99.90;;;;;;5055711;28;20029;-72
2022/09/10 11:36:52;;;;;;;9.15;5.53;;;;;;;;;;5050368;28;20036;-73
2022/09/10 11:39:22;;;;;;;10.68;5.70;;;;;;;;;;5050927;28;20120;-72
2022/09/10 11:41:51;;;;;;;8.35;4.72;;;;;;;;;;5054213;28;20033;-71
2022/09/10 11:44:35;;;;;;;8.32;4.53;;;;;;;;;;5055025;28;20033;-71
2022/09/10 11:47:13;;;;;;;10.93;6.95;;;;;;;;;;5050701;28;20033;-71
2022/09/10 11:50:09;;;;;;;28.92;18.77;;;22.70;99.90;;;;;;5052023;28;20029;-71
2022/09/10 11:52:35;;;;;;;5.82;4.93;;;;;;;;;;5049352;28;20029;-73
2022/09/10 11:55:02;;;;;;;9.85;4.72;;;;;;;;;;5043456;28;20119;-72
2022/09/10 11:57:58;;;;;;;6.72;3.70;;;;;;;;;;5045834;28;20115;-72
2022/09/10 12:00:24;;;;;;;11.32;4.47;;;;;;;;;;5022796;28;20176;-72
2022/09/10 12:02:56;;;;;;;6.88;4.53;;;;;;;;;;5056764;28;20048;-72
2022/09/10 12:05:22;;;;;;;;;;;;;;;;;;5058603;28;20496;-72
2022/09/10 12:08:11;;;;;;;6.30;4.50;;;23.40;99.90;;;;;;5053150;28;20005;-72
2022/09/10 12:10:58;;;;;;;9.38;5.40;;;;;;;;;;5052704;28;20432;-72
2022/09/10 12:13:24;;;;;;;9.70;5.35;;;;;;;;;;5026168;28;20535;-72
2022/09/10 12:15:56;;;;;;;9.23;5.18;;;;;;;;;;5049790;28;20529;-72
2022/09/10 12:18:41;;;;;;;7.95;4.43;;;22.90;99.90;;;;;;5047872;28;20025;-71
2022/09/10 12:21:19;;;;;;;7.18;4.30;;;;;;;;;;5050570;28;20044;-71
2022/09/10 12:23:46;;;;;;;9.02;5.60;;;;;;;;;;5052631;28;20033;-72
2022/09/10 12:26:18;;;;;;;9.70;5.32;;;;;;;;;;5053212;28;20044;-72
2022/09/10 12:28:46;;;;;;;8.15;4.45;;;23.20;99.90;;;;;;5053659;28;20452;-71
2022/09/10 12:31:14;;;;;;;8.60;4.85;;;;;;;;;;5052297;28;20032;-72
2022/09/10 12:33:42;;;;;;;7.68;4.07;;;;;;;;;;5050307;28;20033;-72
2022/09/10 12:36:13;;;;;;;7.32;3.80;;;23.00;99.90;;;;;;5051802;28;20392;-72
2022/09/10 12:38:47;;;;;;;8.43;3.72;;;;;;;;;;5058049;28;20044;-72
2022/09/10 12:41:22;;;;;;;7.80;4.63;;;;;;;;;;5047499;28;20285;-73
2022/09/10 12:43:48;;;;;;;11.18;6.35;;;22.50;99.90;;;;;;5042197;28;20461;-73
2022/09/10 12:46:15;;;;;;;9.65;5.15;;;;;;;;;;5046432;28;20048;-73
2022/09/10 12:48:49;;;;;;;10.93;4.80;;;23.00;99.90;;;;;;5048007;28;20568;-72
2022/09/10 12:51:18;;;;;;;6.68;4.25;;;23.30;99.90;;;;;;5044789;28;20090;-73
2022/09/10 12:54:00;;;;;;;5.72;3.65;;;;;;;;;;5048524;28;20080;-73
2022/09/10 12:56:38;;;;;;;8.38;3.80;;;;;;;;;;5045905;28;20032;-73
2022/09/10 12:59:06;;;;;;;6.47;3.72;;;;;;;;;;5037504;28;20495;-73
2022/09/10 13:01:40;;;;;;;7.50;3.78;;;;;;;;;;5052543;28;20047;-72
2022/09/10 13:04:18;;;;;;;5.03;3.42;;;;;;;;;;5052014;28;20034;-73
2022/09/10 13:06:46;;;;;;;8.07;3.47;;;;;;;;;;5050465;28;20028;-74
2022/09/10 13:09:20;;;;;;;6.20;3.38;;;;;;;;;;5051824;28;20033;-73
2022/09/10 13:11:53;;;;;;;5.93;3.45;;;23.60;99.90;;;;;;5057208;28;20036;-72
2022/09/10 13:14:37;;;;;;;5.00;2.72;;;;;;;;;;5051547;28;20021;-73
2022/09/10 13:17:04;;;;;;;4.00;2.90;;;23.30;99.90;;;;;;5043863;28;20041;-72
2022/09/10 13:19:30;;;;;;;8.40;3.22;;;;;;;;;;5051411;28;20025;-73
2022/09/10 13:21:56;;;;;;;5.32;3.28;;;;;;;;;;5051326;28;20116;-73
2022/09/10 13:24:37;;;;;;;6.60;2.78;;;;;;;;;;5050826;28;20033;-74
2022/09/10 13:27:12;;;;;;;9.60;4.45;;;;;;;;;;5051515;28;20484;-73
2022/09/10 13:29:38;;;;;;;17.40;10.73;;;;;;;;;;5047039;28;20033;-73
2022/09/10 13:32:12;;;;;;;15.48;8.38;;;23.00;99.90;;;;;;5050726;28;20044;-71
2022/09/10 13:34:50;;;;;;;6.60;3.95;;;;;;;;;;5053249;28;20052;-73
2022/09/10 13:37:22;;;;;;;6.78;4.13;;;23.10;99.90;;;;;;5052712;28;20380;-73
2022/09/10 13:40:09;;;;;;;4.22;3.53;;;;;;;;;;5049995;28;20079;-73
2022/09/10 13:42:41;;;;;;;7.63;4.03;;;23.10;99.90;;;;;;5008758;28;20033;-73
2022/09/10 13:45:13;;;;;;;10.13;5.47;;;;;;;;;;5054309;28;20476;-73
2022/09/10 13:47:51;;;;;;;7.75;4.60;;;22.90;99.90;;;;;;5052232;28;20029;-73
2022/09/10 13:50:22;;;;;;;8.25;4.85;;;23.10;99.90;;;;;;5050635;28;20024;-73
2022/09/10 13:52:52;;;;;;;7.10;4.87;;;23.10;99.90;;;;;;5047357;28;20087;-73
2022/09/10 13:55:22;;;;;;;8.68;3.88;;;23.00;99.90;;;;;;5037909;28;20096;-73
2022/09/10 13:57:50;;;;;;;10.48;3.55;;;23.20;99.90;;;;;;5027878;28;20125;-72
2022/09/10 14:00:16;;;;;;;9.73;4.07;;;;;;;;;;5049616;28;20036;-72
2022/09/10 14:02:53;;;;;;;7.60;3.70;;;23.10;99.90;;;;;;5038480;28;20029;-72
2022/09/10 14:05:22;;;;;;;11.20;3.95;;;;;;;;;;5028823;28;20029;-72
2022/09/10 14:07:49;;;;;;;6.72;3.42;;;23.70;99.90;;;;;;5044096;28;20021;-72
2022/09/10 14:10:17;;;;;;;6.68;3.13;;;;;;;;;;5048396;28;20072;-72
2022/09/10 14:12:43;;;;;;;4.95;2.70;;;23.80;99.90;;;;;;5049655;28;20032;-73
2022/09/10 14:15:16;;;;;;;5.50;2.72;;;23.70;99.90;;;;;;5028491;28;20029;-72
2022/09/10 14:17:49;;;;;;;6.30;2.47;;;23.60;99.90;;;;;;5042165;28;20029;-72
2022/09/10 14:20:18;;;;;;;7.03;2.53;;;;;;;;;;5043312;28;20483;-72
2022/09/10 14:22:44;;;;;;;4.25;2.92;;;23.20;99.90;;;;;;5033116;28;22095;-71
2022/09/10 14:25:29;;;;;;;11.75;6.30;;;23.40;99.90;;;;;;5048373;28;20025;-72